Time;durP1;ratioP1;P1;durP2;ratioP2;P2;SDS_P1;SDS_P2;PMS_P1;PMS_P2;Temp;Humidity;BMP_temperature;BMP_pressure;BME280_temperature;BME280_humidity;BME280_pressure;Samples;Min_cycle;Max_cycle;Signal;HPM_P1;HPM_P2
2023/06/02 00:01:23;;;;;;;5.45;3.55;;;;;;;20.37;40.00;98662.31;5146733;28;20123;-80
2023/06/02 00:03:53;;;;;;;6.22;3.90;;;;;;;20.64;40.05;98709.66;5146168;28;20176;-79
2023/06/02 00:06:20;;;;;;;7.22;3.65;;;;;;;20.60;40.25;98715.53;5148403;28;20348;-80
2023/06/02 00:08:47;;;;;;;6.85;4.00;;;;;;;20.60;40.28;98711.00;5146910;28;20039;-80
2023/06/02 00:11:15;;;;;;;8.73;4.40;;;;;;;20.57;39.97;98713.16;5150175;27;20105;-80
2023/06/02 00:13:42;;;;;;;6.97;3.92;;;;;;;20.51;40.32;98711.97;5151707;27;20039;-80
2023/06/02 00:16:09;;;;;;;7.03;4.13;;;;;;;20.46;40.43;98707.09;5152743;27;20248;-80
2023/06/02 00:18:37;;;;;;;5.70;3.85;;;;;;;20.42;40.31;98711.09;5151474;27;20299;-79
2023/06/02 00:21:06;;;;;;;6.32;3.97;;;;;;;20.26;40.52;98676.06;5151606;27;20066;-80
2023/06/02 00:23:33;;;;;;;6.72;4.13;;;;;;;20.46;40.55;98708.94;5150932;27;20039;-80
2023/06/02 00:26:01;;;;;;;7.03;4.40;;;;;;;20.43;40.72;98712.78;5152193;27;20110;-80
2023/06/02 00:28:29;;;;;;;6.32;4.63;;;;;;;20.46;41.04;98711.63;5151614;27;20106;-80
2023/06/02 00:30:56;;;;;;;8.75;3.63;;;;;;;20.41;40.70;98717.50;5151412;27;20089;-80
2023/06/02 00:33:23;;;;;;;5.78;4.13;;;;;;;20.37;41.16;98713.44;5150478;27;20128;-80
2023/06/02 00:35:50;;;;;;;7.22;4.05;;;;;;;20.36;41.01;98716.28;5150904;27;20122;-80
2023/06/02 00:38:17;;;;;;;5.32;3.75;;;;;;;20.30;41.53;98716.94;5150827;27;20059;-79
2023/06/02 00:40:44;;;;;;;7.07;4.00;;;;;;;20.19;41.25;98699.19;5151160;27;20048;-80
2023/06/02 00:43:11;;;;;;;9.75;4.45;;;;;;;20.24;41.46;98721.13;5148745;27;20067;-79
2023/06/02 00:45:39;;;;;;;6.13;4.35;;;;;;;20.22;41.50;98725.81;5150371;27;20063;-79
2023/06/02 00:48:07;;;;;;;6.32;4.13;;;;;;;20.19;41.37;98718.03;5149725;27;20042;-79
2023/06/02 00:50:34;;;;;;;5.68;4.20;;;;;;;20.19;41.33;98723.41;5148835;27;20366;-79
2023/06/02 00:53:02;;;;;;;6.53;4.68;;;;;;;20.17;41.32;98718.19;5150352;27;20172;-80
2023/06/02 00:55:30;;;;;;;6.97;3.83;;;;;;;20.18;40.91;98719.03;5149180;27;20114;-80
2023/06/02 00:57:58;;;;;;;6.65;3.75;;;;;;;19.99;41.18;98681.63;5148729;27;20295;-79
2023/06/02 01:00:26;;;;;;;7.00;4.47;;;;;;;19.74;41.26;98649.19;5149844;27;20053;-79
2023/06/02 01:02:57;;;;;;;6.40;3.90;;;;;;;20.09;41.05;98711.94;5149748;27;20035;-79
2023/06/02 01:05:25;;;;;;;4.75;3.35;;;;;;;20.04;41.29;98715.09;5148563;27;20035;-79
2023/06/02 01:07:58;;;;;;;6.30;3.30;;;;;;;19.98;41.97;98714.91;5149392;27;20043;-79
2023/06/02 01:10:26;;;;;;;9.18;4.05;;;;;;;19.82;41.55;98692.28;5148523;27;20134;-79
2023/06/02 01:12:54;;;;;;;5.28;3.42;;;;;;;19.95;41.60;98715.22;5148841;27;20035;-79
2023/06/02 01:15:21;;;;;;;8.48;3.53;;;;;;;19.94;41.55;98716.22;5148757;27;20096;-80
2023/06/02 01:17:50;;;;;;;5.40;4.28;;;;;;;19.94;41.44;98714.38;5149374;27;20043;-80
2023/06/02 01:20:21;;;;;;;4.43;3.42;;;;;;;19.92;41.88;98726.28;5148297;27;20039;-79
2023/06/02 01:23:01;;;;;;;7.03;4.05;;;;;;;19.84;42.16;98713.63;5148237;27;20295;-79
2023/06/02 01:25:29;;;;;;;5.07;3.42;;;;;;;19.60;41.77;98682.03;5149115;27;20073;-79
2023/06/02 01:28:02;;;;;;;5.22;3.53;;;;;;;19.45;41.91;98673.72;5149572;27;20046;-79
2023/06/02 01:30:31;;;;;;;5.22;3.60;;;;;;;19.77;41.89;98718.78;5148933;27;20039;-79
2023/06/02 01:33:07;;;;;;;5.93;4.05;;;;;;;19.75;42.71;98715.41;5149437;27;20062;-79
2023/06/02 01:35:42;;;;;;;4.78;3.33;;;;;;;18.99;41.81;98612.22;5148888;27;20077;-80
2023/06/02 01:38:10;;;;;;;7.13;3.90;;;;;;;19.68;41.58;98722.41;5149188;27;20041;-80
2023/06/02 01:40:39;;;;;;;5.40;4.05;;;;;;;19.62;41.59;98730.25;5148922;27;20051;-80
2023/06/02 01:43:07;;;;;;;5.20;3.33;;;;;;;19.59;41.43;98714.44;5148749;27;20062;-79
2023/06/02 01:45:34;;;;;;;5.18;3.60;;;;;;;19.54;41.28;98707.69;5149245;27;20039;-80
2023/06/02 01:48:05;;;;;;;4.22;3.00;;;;;;;18.97;41.46;98622.25;5149242;27;20046;-79
2023/06/02 01:50:33;;;;;;;5.22;3.03;;;;;;;19.50;41.34;98708.16;5148649;27;20065;-79
2023/06/02 01:53:00;;;;;;;4.13;3.03;;;;;;;19.47;41.21;98717.38;5131269;27;20035;-79
2023/06/02 01:55:27;;;;;;;8.15;3.60;;;;;;;19.43;41.56;98710.63;5148985;27;20072;-79
2023/06/02 01:57:55;;;;;;;5.60;3.10;;;;;;;19.41;41.46;98707.25;5148774;27;20039;-79
2023/06/02 02:00:22;;;;;;;8.02;3.00;;;;;;;19.39;41.80;98706.56;5130850;27;20030;-79
2023/06/02 02:02:51;;;;;;;3.90;3.10;;;;;;;19.36;41.73;98703.31;5148226;27;20043;-78
2023/06/02 02:05:18;;;;;;;5.68;3.47;;;;;;;19.34;42.11;98703.47;5148516;27;20043;-78
2023/06/02 02:07:47;;;;;;;5.45;3.10;;;;;;;17.47;41.94;98400.38;5148163;27;20035;-79
2023/06/02 02:10:15;;;;;;;8.48;3.67;;;;;;;19.29;42.23;98705.78;5148179;27;20055;-79
2023/06/02 02:12:42;;;;;;;5.40;3.25;;;;;;;19.24;42.58;98706.25;5148114;27;20043;-79
2023/06/02 02:15:11;;;;;;;5.45;3.33;;;;;;;18.87;42.32;98646.50;5148285;27;20039;-79
2023/06/02 02:17:45;;;;;;;5.35;3.38;;;;;;;19.20;42.73;98710.25;5147121;27;20046;-79
2023/06/02 02:20:13;;;;;;;7.68;3.67;;;;;;;19.17;42.46;98705.19;5148322;27;20062;-79
2023/06/02 02:22:40;;;;;;;4.45;3.13;;;;;;;18.22;42.64;98555.47;5148228;27;20342;-79
2023/06/02 02:25:07;;;;;;;4.72;3.00;;;;;;;19.16;42.50;98708.03;5148313;27;20042;-78
2023/06/02 02:27:33;;;;;;;4.55;3.30;;;;;;;19.16;42.54;98716.09;5148368;27;20065;-79
2023/06/02 02:30:00;;;;;;;6.10;3.20;;;;;;;18.90;43.12;98667.69;5147526;27;20060;-80
2023/06/02 02:32:29;;;;;;;4.43;3.33;;;;;;;19.13;43.32;98702.97;5147361;27;20081;-80
2023/06/02 02:34:56;;;;;;;4.70;3.65;;;;;;;16.99;43.12;98355.94;5148337;27;20039;-80
2023/06/02 02:37:23;;;;;;;4.45;2.92;;;;;;;19.11;43.30;98704.97;5148329;27;20358;-80
2023/06/02 02:39:50;;;;;;;5.28;3.72;;;;;;;19.10;43.40;98709.50;5146858;27;20039;-79
2023/06/02 02:42:17;;;;;;;5.40;3.70;;;;;;;19.07;43.51;98708.97;5146906;27;20060;-80
2023/06/02 02:44:43;;;;;;;4.55;3.15;;;;;;;19.09;43.56;98698.91;5106985;28;20239;-79
2023/06/02 02:47:10;;;;;;;4.82;3.40;;;;;;;19.06;43.39;98704.59;5105597;28;20066;-79
2023/06/02 02:49:38;;;;;;;6.53;3.70;;;;;;;19.06;43.54;98709.97;5105519;28;20295;-79
2023/06/02 02:52:05;;;;;;;4.57;3.50;;;;;;;18.82;43.62;98672.97;5106319;28;20085;-79
2023/06/02 02:54:33;;;;;;;4.43;3.08;;;;;;;19.01;43.92;98701.50;5106610;28;20036;-79
2023/06/02 02:57:00;;;;;;;6.95;3.40;;;;;;;19.00;43.79;98699.81;5105813;28;20040;-79
2023/06/02 02:59:27;;;;;;;4.75;3.65;;;;;;;19.02;43.86;98709.41;5105974;28;20097;-79
2023/06/02 03:01:54;;;;;;;4.75;3.55;;;;;;;18.86;43.65;98687.78;5106610;28;20047;-79
2023/06/02 03:04:21;;;;;;;4.78;3.30;;;;;;;18.99;43.83;98711.56;5105836;28;20254;-79
2023/06/02 03:06:52;;;;;;;5.00;3.72;;;;;;;18.97;43.78;98710.88;5105242;28;20096;-79
2023/06/02 03:09:20;;;;;;;6.07;3.53;;;;;;;17.82;43.53;98504.09;5105249;28;20046;-79
2023/06/02 03:11:48;;;;;;;6.97;3.63;;;;;;;18.81;43.89;98666.75;5106540;28;20036;-79
2023/06/02 03:14:14;;;;;;;7.07;3.47;;;;;;;19.04;43.58;98707.44;5106326;28;20192;-80
2023/06/02 03:16:44;;;;;;;4.45;3.35;;;;;;;18.55;43.73;98634.47;5106220;28;20039;-80
2023/06/02 03:19:13;;;;;;;4.95;3.58;;;;;;;19.07;43.92;98714.31;5106404;28;20032;-80
2023/06/02 03:21:42;;;;;;;5.40;3.95;;;;;;;19.09;43.82;98709.66;5105462;28;20044;-80
2023/06/02 03:24:16;;;;;;;7.13;4.03;;;;;;;19.08;44.22;98714.16;5106315;28;20077;-80
2023/06/02 03:26:44;;;;;;;7.72;4.03;;;;;;;19.06;43.62;98709.97;5105079;28;20223;-80
2023/06/02 03:29:11;;;;;;;4.38;3.47;;;;;;;19.07;43.84;98709.81;5106029;28;20040;-80
2023/06/02 03:31:38;;;;;;;6.72;4.07;;;;;;;19.10;43.87;98716.72;5104953;28;20114;-80
2023/06/02 03:34:06;;;;;;;10.38;4.82;;;;;;;19.14;44.10;98718.09;5106054;28;20311;-80
2023/06/02 03:36:35;;;;;;;6.20;3.65;;;;;;;19.16;44.20;98729.53;5105912;28;20048;-80
2023/06/02 03:39:04;;;;;;;5.38;3.67;;;;;;;19.15;44.09;98717.94;5105395;28;20250;-80
2023/06/02 03:41:32;;;;;;;6.45;3.70;;;;;;;19.12;44.49;98725.44;5106505;28;20094;-80
2023/06/02 03:43:59;;;;;;;6.50;4.35;;;;;;;19.14;44.54;98726.16;5135032;27;20055;-80
2023/06/02 03:46:25;;;;;;;6.45;4.22;;;;;;;19.17;44.65;98724.00;5151448;27;20061;-79
2023/06/02 03:48:52;;;;;;;13.57;4.13;;;;;;;19.19;44.65;98729.22;5151473;27;20051;-80
2023/06/02 03:51:19;;;;;;;7.45;3.97;;;;;;;19.21;44.51;98724.53;5151284;27;20348;-80
2023/06/02 03:53:45;;;;;;;9.43;4.47;;;;;;;19.21;44.74;98720.00;5151677;27;20213;-80
2023/06/02 03:56:13;;;;;;;7.07;4.45;;;;;;;19.20;44.63;98728.22;5149929;27;20046;-80
2023/06/02 03:58:41;;;;;;;7.38;4.35;;;;;;;19.23;44.64;98727.91;5150979;27;20190;-80
2023/06/02 04:01:08;;;;;;;8.98;4.80;;;;;;;19.27;44.63;98731.97;5150981;27;20045;-80
2023/06/02 04:03:36;;;;;;;8.40;4.30;;;;;;;19.29;44.76;98731.81;5149721;27;20047;-80
2023/06/02 04:06:03;;;;;;;9.18;4.55;;;;;;;19.27;44.50;98734.66;5150636;27;20035;-80
2023/06/02 04:08:30;;;;;;;8.20;4.60;;;;;;;19.30;44.53;98736.19;5149818;27;20039;-80
2023/06/02 04:10:57;;;;;;;6.97;5.00;;;;;;;19.30;44.83;98747.78;5149651;27;20046;-81
2023/06/02 04:13:24;;;;;;;11.82;4.35;;;;;;;19.30;44.31;98744.25;5149606;27;20038;-80
2023/06/02 04:15:52;;;;;;;17.02;5.07;;;;;;;19.30;44.70;98749.63;5150768;27;20310;-80
2023/06/02 04:18:19;;;;;;;7.10;4.18;;;;;;;19.28;44.32;98744.41;5149686;27;20039;-80
2023/06/02 04:20:46;;;;;;;10.85;3.60;;;;;;;17.28;44.14;98409.38;5150415;27;20041;-80
2023/06/02 04:23:12;;;;;;;8.93;4.68;;;;;;;19.31;44.30;98745.94;5149423;27;20041;-80
2023/06/02 04:25:39;;;;;;;10.65;4.32;;;;;;;19.32;44.92;98748.47;5150479;27;20038;-80
2023/06/02 04:28:07;;;;;;;6.72;4.25;;;;;;;19.30;45.00;98745.09;5150448;27;20287;-80
2023/06/02 04:30:36;;;;;;;7.07;3.95;;;;;;;19.29;44.83;98756.00;5149315;27;20035;-80
2023/06/02 04:33:05;;;;;;;8.00;5.07;;;;;;;18.79;44.97;98676.81;5150682;27;20112;-80
2023/06/02 04:35:31;;;;;;;7.75;4.07;;;;;;;19.30;45.04;98755.84;5150267;27;20054;-80
2023/06/02 04:37:58;;;;;;;6.22;3.83;;;;;;;19.30;45.24;98758.53;5149133;27;20106;-80
2023/06/02 04:40:25;;;;;;;9.65;3.85;;;;;;;19.32;45.26;98758.38;5149326;27;20304;-80
2023/06/02 04:42:52;;;;;;;11.95;4.47;;;;;;;19.36;45.08;98755.22;5149845;27;20336;-80
2023/06/02 04:45:20;;;;;;;11.32;4.40;;;;;;;19.37;45.31;98758.75;5150787;27;20036;-80
2023/06/02 04:47:47;;;;;;;7.88;4.68;;;;;;;19.40;45.38;98759.31;5150528;27;20348;-80
2023/06/02 04:50:15;;;;;;;7.32;3.97;;;;;;;19.42;45.74;98757.31;5148941;27;20042;-80
2023/06/02 04:52:43;;;;;;;6.90;4.47;;;;;;;19.45;45.26;98751.63;5150536;27;20100;-80
2023/06/02 04:55:11;;;;;;;14.25;5.18;;;;;;;19.50;45.54;98761.91;5150403;27;20043;-80
2023/06/02 04:57:38;;;;;;;8.15;5.22;;;;;;;16.68;45.78;98286.69;5148844;27;20035;-80
2023/06/02 05:00:06;;;;;;;5.53;4.10;;;;;;;19.55;46.15;98754.22;5149533;27;20180;-80
2023/06/02 05:02:34;;;;;;;6.70;4.03;;;;;;;19.22;45.89;98688.59;5149071;27;20051;-80
2023/06/02 05:05:02;;;;;;;5.75;4.47;;;;;;;19.62;46.10;98757.97;5149926;27;20120;-80
2023/06/02 05:07:30;;;;;;;7.60;4.70;;;;;;;19.62;46.06;98754.44;5150012;27;20294;-80
2023/06/02 05:09:57;;;;;;;6.45;4.40;;;;;;;19.61;46.16;98758.97;5149615;27;20291;-80
2023/06/02 05:12:25;;;;;;;6.75;5.05;;;;;;;19.60;46.74;98761.84;5150265;27;20039;-80
2023/06/02 05:14:53;;;;;;;6.10;4.20;;;;;;;19.59;46.51;98774.44;5150581;27;20165;-80
2023/06/02 05:17:22;;;;;;;6.65;4.32;;;;;;;19.60;46.74;98778.81;5150096;27;20047;-80
2023/06/02 05:19:49;;;;;;;7.00;5.05;;;;;;;19.23;46.35;98722.53;5149926;27;20333;-80
2023/06/02 05:22:16;;;;;;;5.35;4.38;;;;;;;19.58;46.82;98779.97;5149734;27;20039;-80
2023/06/02 05:24:44;;;;;;;6.00;4.35;;;;;;;19.57;46.53;98783.63;5149399;27;20043;-80
2023/06/02 05:27:11;;;;;;;6.40;4.05;;;;;;;19.55;46.62;98779.25;5149184;27;20039;-80
2023/06/02 05:29:38;;;;;;;7.60;3.85;;;;;;;19.59;46.61;98777.13;5149303;27;20195;-80
2023/06/02 05:32:06;;;;;;;5.88;4.30;;;;;;;19.59;46.67;98777.13;5149328;27;20051;-79
2023/06/02 05:34:32;;;;;;;10.00;4.45;;;;;;;19.61;46.34;98787.72;5149359;27;20039;-80
2023/06/02 05:37:00;;;;;;;5.60;3.80;;;;;;;19.60;46.43;98784.19;5148474;27;20325;-80
2023/06/02 05:39:27;;;;;;;5.35;4.00;;;;;;;19.59;46.51;98787.88;5148706;27;20300;-80
2023/06/02 05:41:55;;;;;;;4.90;3.67;;;;;;;19.58;46.26;98796.09;5148795;27;20102;-80
2023/06/02 05:44:22;;;;;;;7.28;4.95;;;;;;;19.45;46.61;98765.06;5149387;27;20053;-79
2023/06/02 05:46:48;;;;;;;5.32;4.30;;;;;;;19.57;46.53;98789.88;5148630;27;20046;-80
2023/06/02 05:49:15;;;;;;;7.38;3.70;;;;;;;19.64;46.26;98795.47;5148805;27;20047;-80
2023/06/02 05:51:42;;;;;;;8.48;4.78;;;;;;;19.68;45.87;98794.16;5149685;27;20096;-80
2023/06/02 05:54:09;;;;;;;6.55;4.18;;;;;;;19.74;46.16;98798.91;5148650;27;20062;-80
2023/06/02 05:56:38;;;;;;;6.50;4.25;;;;;;;19.77;45.89;98802.13;5149424;27;20046;-80
2023/06/02 05:59:06;;;;;;;8.02;4.25;;;;;;;19.79;45.74;98804.66;5148003;27;20106;-80
2023/06/02 06:01:33;;;;;;;7.03;3.90;;;;;;;19.78;45.87;98805.66;5149213;27;20369;-80
2023/06/02 06:04:00;;;;;;;5.60;4.25;;;;;;;19.82;45.75;98807.91;5148304;27;20291;-80
2023/06/02 06:06:27;;;;;;;6.32;4.15;;;;;;;19.88;45.54;98802.91;5147500;27;20084;-80
2023/06/02 06:08:54;;;;;;;5.63;4.65;;;;;;;19.93;44.83;98805.97;5148210;27;20035;-80
2023/06/02 06:11:21;;;;;;;6.72;4.55;;;;;;;19.96;44.89;98803.81;5147253;27;20038;-80
2023/06/02 06:13:48;;;;;;;6.80;4.28;;;;;;;19.97;44.54;98813.56;5148481;27;20046;-80
2023/06/02 06:16:16;;;;;;;7.13;4.00;;;;;;;20.01;44.56;98806.03;5149187;27;20042;-80
2023/06/02 06:18:44;;;;;;;5.40;4.00;;;;;;;20.04;44.22;98809.25;5149178;27;20229;-80
2023/06/02 06:21:13;;;;;;;7.97;5.22;;;;;;;19.28;44.02;98696.03;5147878;27;20045;-80
2023/06/02 06:23:40;;;;;;;6.10;4.50;;;;;;;20.13;44.49;98807.44;5149576;27;20046;-80
2023/06/02 06:26:07;;;;;;;8.80;4.60;;;;;;;19.21;44.25;98657.38;5147962;27;20080;-80
2023/06/02 06:28:33;;;;;;;6.63;4.70;;;;;;;20.22;43.88;98813.72;5149291;27;20050;-80
2023/06/02 06:31:00;;;;;;;6.22;4.70;;;;;;;20.27;44.14;98819.50;5148729;27;20031;-80
2023/06/02 06:33:29;;;;;;;12.77;5.07;;;;;;;20.31;43.86;98820.88;5148124;27;20096;-80
2023/06/02 06:35:56;;;;;;;9.38;6.55;;;;;;;20.33;43.79;98825.09;5147731;27;20282;-80
2023/06/02 06:38:22;;;;;;;6.72;4.57;;;;;;;20.36;43.46;98819.41;5148994;27;20043;-80
2023/06/02 06:40:49;;;;;;;6.53;4.55;;;;;;;19.31;43.21;98641.16;5147035;27;20041;-80
2023/06/02 06:43:16;;;;;;;5.55;4.20;;;;;;;20.42;43.45;98820.59;5148595;27;20131;-80
2023/06/02 06:45:46;;;;;;;8.60;5.30;;;;;;;20.46;42.93;98814.75;5148897;27;20069;-79
2023/06/02 06:48:12;;;;;;;7.38;4.95;;;;;;;20.51;42.96;98822.34;5149170;27;20240;-80
2023/06/02 06:50:40;;;;;;;7.78;4.55;;;;;;;20.57;42.98;98829.78;5148965;27;20043;-80
2023/06/02 06:53:09;;;;;;;6.47;4.45;;;;;;;20.63;42.75;98828.28;5149038;27;20053;-80
2023/06/02 06:55:36;;;;;;;6.60;4.40;;;;;;;20.69;42.65;98831.19;5149201;27;20260;-80
2023/06/02 06:58:03;;;;;;;7.30;5.68;;;;;;;20.76;42.34;98829.53;5148916;27;20237;-80
2023/06/02 07:00:31;;;;;;;6.93;4.90;;;;;;;20.83;42.43;98837.78;5130799;27;20099;-80
2023/06/02 07:02:58;;;;;;;6.25;4.80;;;;;;;20.90;41.88;98827.22;5148964;27;20043;-80
2023/06/02 07:05:24;;;;;;;8.35;4.57;;;;;;;20.97;42.00;98836.34;5146887;27;20027;-80
2023/06/02 07:07:53;;;;;;;6.55;4.60;;;;;;;21.06;42.06;98836.22;5148390;27;20043;-80
2023/06/02 07:10:19;;;;;;;7.80;4.53;;;;;;;21.19;41.82;98830.38;5148196;27;20291;-80
2023/06/02 07:12:47;;;;;;;5.47;3.92;;;;;;;21.31;41.44;98834.44;5148180;27;20058;-80
2023/06/02 07:15:14;;;;;;;8.45;3.72;;;;;;;21.43;41.31;98830.41;5148285;27;20043;-80
2023/06/02 07:17:41;;;;;;;5.80;4.25;;;;;;;21.64;41.07;98831.78;5147982;27;20035;-80
2023/06/02 07:20:09;;;;;;;7.25;5.03;;;;;;;21.91;40.84;98836.88;5147786;27;20322;-80
2023/06/02 07:22:36;;;;;;;7.22;4.53;;;;;;;22.19;40.63;98828.41;5147334;27;20039;-80
2023/06/02 07:25:06;;;;;;;6.22;4.97;;;;;;;22.46;40.33;98838.00;5148088;27;20050;-80
2023/06/02 07:27:33;;;;;;;7.40;4.95;;;;;;;22.67;39.77;98831.06;5146837;27;20035;-80
2023/06/02 07:30:00;;;;;;;6.38;4.40;;;;;;;22.92;39.43;98830.97;5148242;27;20046;-80
2023/06/02 07:32:27;;;;;;;8.23;4.03;;;;;;;23.14;38.97;98832.03;5147792;27;20031;-80
2023/06/02 07:34:54;;;;;;;5.78;3.67;;;;;;;23.27;38.41;98829.63;5149890;27;20095;-80
2023/06/02 07:37:20;;;;;;;8.40;4.00;;;;;;;23.30;38.00;98826.56;5149148;27;20069;-80
2023/06/02 07:39:47;;;;;;;5.45;3.35;;;;;;;23.33;38.00;98823.50;5148376;27;20031;-80
2023/06/02 07:42:15;;;;;;;9.27;4.40;;;;;;;23.47;38.02;98816.47;5148427;27;20047;-80
2023/06/02 07:44:42;;;;;;;6.35;3.80;;;;;;;23.57;37.67;98822.50;5147748;27;20050;-80
2023/06/02 07:47:10;;;;;;;5.15;3.65;;;;;;;23.66;37.50;98822.25;5148275;28;20043;-80
2023/06/02 07:49:37;;;;;;;7.82;4.13;;;;;;;23.68;37.21;98817.50;5147684;28;20303;-80
2023/06/02 07:52:04;;;;;;;11.70;4.43;;;;;;;23.66;37.23;98788.94;5148832;28;20062;-80
2023/06/02 07:54:31;;;;;;;5.20;3.42;;;;;;;24.00;37.24;98811.00;5149243;28;20165;-80
2023/06/02 07:56:58;;;;;;;5.72;4.30;;;;;;;24.15;36.81;98804.78;5148871;28;20039;-80
2023/06/02 07:59:26;;;;;;;6.85;3.67;;;;;;;24.30;36.91;98811.88;5149206;28;20248;-80
2023/06/02 08:01:53;;;;;;;8.63;3.85;;;;;;;24.44;36.69;98821.06;5149612;28;20043;-80
2023/06/02 08:04:25;;;;;;;7.05;4.13;;;;;;;24.50;36.55;98808.63;5149652;28;20045;-80
2023/06/02 08:06:52;;;;;;;5.85;3.97;;;;;;;24.40;36.42;98781.81;5149243;28;20035;-80
2023/06/02 08:09:19;;;;;;;6.88;4.15;;;;;;;24.74;36.37;98808.38;5149103;28;20039;-80
2023/06/02 08:11:46;;;;;;;6.57;4.20;;;;;;;24.84;35.79;98805.38;5149979;28;20062;-80
2023/06/02 08:14:13;;;;;;;7.28;4.40;;;;;;;24.87;35.81;98805.00;5148451;28;20291;-80
2023/06/02 08:16:42;;;;;;;4.90;3.80;;;;;;;24.88;35.93;98812.94;5148115;28;20035;-80
2023/06/02 08:19:10;;;;;;;5.53;3.63;;;;;;;24.71;35.48;98775.41;5148142;28;20035;-80
2023/06/02 08:21:38;;;;;;;5.68;3.15;;;;;;;24.97;35.69;98810.97;5148195;28;20081;-80
2023/06/02 08:24:05;;;;;;;6.15;3.60;;;;;;;24.74;35.74;98759.59;5149291;27;20039;-80
2023/06/02 08:26:32;;;;;;;6.43;4.13;;;;;;;25.14;35.52;98801.59;5149447;28;20049;-80
2023/06/02 08:28:59;;;;;;;5.28;4.00;;;;;;;25.18;35.53;98794.78;5148545;28;20053;-80
2023/06/02 08:31:26;;;;;;;6.40;4.00;;;;;;;25.33;35.21;98805.59;5149200;27;20056;-80
2023/06/02 08:33:55;;;;;;;7.50;4.32;;;;;;;25.49;35.16;98804.53;5153198;27;20047;-81
2023/06/02 08:36:23;;;;;;;6.78;3.75;;;;;;;25.56;34.97;98800.84;5152876;27;20098;-80
2023/06/02 08:38:51;;;;;;;6.13;3.80;;;;;;;25.44;34.53;98764.41;5151086;27;20031;-80
2023/06/02 08:41:19;;;;;;;14.15;4.00;;;;;;;25.81;34.95;98795.84;5151406;27;20076;-80
2023/06/02 08:43:46;;;;;;;6.20;4.18;;;;;;;25.98;34.61;98795.59;5150836;27;20059;-80
2023/06/02 08:46:14;;;;;;;5.25;4.15;;;;;;;26.12;34.48;98797.38;5151177;27;20035;-80
2023/06/02 08:48:45;;;;;;;5.43;3.47;;;;;;;26.14;33.69;98798.03;5151149;27;20050;-80
2023/06/02 08:51:20;;;;;;;10.80;4.20;;;;;;;26.18;32.78;98794.72;5151347;27;20333;-80
2023/06/02 08:53:48;;;;;;;5.65;3.38;;;;;;;26.21;33.66;98791.59;5150379;27;20031;-79
2023/06/02 08:56:15;;;;;;;7.82;4.10;;;;;;;25.72;33.35;98707.47;5148358;27;20349;-78
2023/06/02 08:58:45;;;;;;;7.25;3.60;;;;;;;26.26;33.01;98793.72;5149615;27;20290;-79
2023/06/02 09:01:12;;;;;;;10.93;4.05;;;;;;;26.36;33.20;98786.06;5150356;27;20287;-80
2023/06/02 09:03:40;;;;;;;6.18;3.88;;;;;;;26.47;33.58;98782.78;5151454;27;20051;-81
2023/06/02 09:06:23;;;;;;;4.70;3.42;;;;;;;26.13;31.47;98720.31;5149818;27;20114;-80
2023/06/02 09:08:57;;;;;;;5.43;3.25;;;;;;;26.55;32.45;98790.78;5150380;27;20065;-81
2023/06/02 09:11:25;;;;;;;6.47;4.00;;;;;;;26.57;33.58;98787.00;5151651;27;20061;-81
2023/06/02 09:13:52;;;;;;;8.25;4.35;;;;;;;26.66;33.66;98780.41;5150936;27;20269;-81
2023/06/02 09:16:20;;;;;;;8.00;4.80;;;;;;;26.80;33.15;98782.16;5151258;27;20046;-80
2023/06/02 09:18:57;;;;;;;8.93;4.40;;;;;;;26.89;32.83;98783.66;5151235;27;20106;-80
2023/06/02 09:21:27;;;;;;;6.32;4.15;;;;;;;27.02;32.81;98772.81;5151105;27;20039;-81
2023/06/02 09:23:55;;;;;;;7.28;4.25;;;;;;;27.18;33.29;98780.63;5151726;27;20057;-81
2023/06/02 09:26:22;;;;;;;5.68;3.60;;;;;;;27.33;32.99;98783.19;5151656;27;20119;-80
2023/06/02 09:29:05;;;;;;;7.07;4.13;;;;;;;27.44;31.97;98784.47;5151299;27;20051;-81
2023/06/02 09:31:46;;;;;;;9.55;5.97;;;;;;;27.57;31.15;98781.78;5149486;27;20054;-78
2023/06/02 09:34:14;;;;;;;5.85;4.28;;;;;;;27.66;32.41;98777.00;5148777;27;20066;-79
2023/06/02 09:36:42;;;;;;;8.35;5.75;;;;;;;27.73;32.06;98781.41;5147523;27;20031;-78
2023/06/02 09:39:10;;;;;;;5.90;4.75;;;;;;;27.81;32.42;98774.91;5148542;27;20050;-78
2023/06/02 09:41:38;;;;;;;11.82;4.00;;;;;;;27.86;32.63;98771.59;5148964;27;20255;-78
2023/06/02 09:44:13;;;;;;;7.32;4.60;;;;;;;27.90;31.89;98768.25;5148104;27;20043;-78
2023/06/02 09:46:41;;;;;;;6.72;4.90;;;;;;;27.96;32.27;98777.47;5148442;27;20221;-78
2023/06/02 09:49:09;;;;;;;6.07;4.22;;;;;;;27.60;32.37;98707.88;5148456;27;20088;-78
2023/06/02 09:51:37;;;;;;;5.43;3.95;;;;;;;28.09;32.44;98777.44;5150551;27;20053;-81
2023/06/02 09:54:07;;;;;;;8.80;4.90;;;;;;;28.13;31.67;98781.44;5150488;27;20295;-81
2023/06/02 09:56:36;;;;;;;7.60;4.05;;;;;;;28.16;31.60;98778.28;5149600;27;20058;-80
2023/06/02 09:59:05;;;;;;;7.28;4.43;;;;;;;28.17;31.38;98790.00;5148793;27;20288;-81
2023/06/02 10:01:32;;;;;;;18.40;11.15;;;;;;;28.04;32.06;98742.66;5149993;27;20303;-80
2023/06/02 10:03:59;;;;;;;13.80;9.70;;;;;;;28.02;31.71;98733.03;5150389;27;20187;-79
2023/06/02 10:06:42;;;;;;;12.07;6.35;;;;;;;28.30;31.07;98765.47;5147215;27;20039;-79
2023/06/02 10:09:51;;;;;;;7.80;4.40;;;;;;;28.06;30.41;98751.47;5147773;27;20093;-78
2023/06/02 10:12:31;;;;;;;5.93;3.92;;;;;;;28.24;30.38;98771.78;5137061;27;20059;-78
2023/06/02 10:15:22;;;;;;;6.88;4.45;;;;;;;28.16;29.89;98770.09;5149557;27;20050;-80
2023/06/02 10:18:00;;;;;;;7.40;3.97;;;;;;;28.05;30.62;98760.69;5147472;27;20035;-80
2023/06/02 10:20:31;;;;;;;4.85;3.67;;;;;;;28.07;31.25;98755.88;5149773;27;20046;-80
2023/06/02 10:23:11;;;;;;;9.52;4.70;;;;;;;28.11;30.59;98759.00;5148928;27;20121;-80
2023/06/02 10:25:55;;;;;;;7.75;4.10;;;;;;;28.10;30.03;98752.72;5150210;27;20330;-80
2023/06/02 10:28:22;;;;;;;6.55;4.68;;;;;;;28.20;31.22;98752.28;5149118;27;20123;-80
2023/06/02 10:30:49;;;;;;;6.50;4.03;;;;;;;28.28;31.26;98748.50;5148567;27;20043;-79
2023/06/02 10:33:16;;;;;;;6.97;4.30;;;;;;;28.34;30.96;98744.91;5149463;27;20043;-80
2023/06/02 10:35:57;;;;;;;8.73;4.18;;;;;;;28.37;29.86;98744.50;5149192;27;20031;-80
2023/06/02 10:38:24;;;;;;;7.07;4.50;;;;;;;28.43;31.21;98744.50;5149881;27;20051;-80
2023/06/02 10:40:54;;;;;;;7.85;4.68;;;;;;;28.50;31.07;98740.94;5150054;27;20039;-80
2023/06/02 10:43:21;;;;;;;9.98;6.50;;;;;;;28.06;30.88;98668.91;5148652;27;20058;-80
2023/06/02 10:45:48;;;;;;;5.28;4.68;;;;;;;28.55;30.54;98733.78;5149234;27;20330;-80
2023/06/02 10:48:41;;;;;;;5.22;4.00;;;;;;;28.58;29.79;98738.81;5148540;27;20096;-80
2023/06/02 10:51:10;;;;;;;7.03;4.30;;;;;;;28.62;30.77;98729.16;5149550;27;20047;-80
2023/06/02 10:54:11;;;;;;;8.90;5.35;;;;;;;28.65;29.80;98730.59;5149748;27;20217;-80
2023/06/02 10:56:44;;;;;;;7.18;5.07;;;;;;;28.61;29.31;98727.47;5148596;27;20090;-80
2023/06/02 10:59:30;;;;;;;6.47;4.40;;;;;;;28.64;30.46;98729.75;5147725;27;20061;-80
2023/06/02 11:01:57;;;;;;;6.60;4.57;;;;;;;28.26;30.68;98649.78;5131790;27;20046;-80
2023/06/02 11:04:28;;;;;;;6.35;4.55;;;;;;;28.82;30.18;98729.06;5148816;27;20275;-80
2023/06/02 11:07:29;;;;;;;8.10;4.85;;;;;;;28.87;29.66;98726.53;5148052;27;20080;-78
2023/06/02 11:09:58;;;;;;;7.07;4.82;;;;;;;28.47;30.25;98662.31;5148252;27;20039;-80
2023/06/02 11:13:00;;;;;;;5.60;3.90;;;;;;;28.83;29.26;98730.72;5147051;27;20035;-80
2023/06/02 11:15:28;;;;;;;8.73;4.45;;;;;;;28.80;29.76;98733.88;5144880;27;20063;-80
2023/06/02 11:17:55;;;;;;;10.15;4.60;;;;;;;28.78;30.00;98727.81;5146945;27;20064;-79
2023/06/02 11:20:33;;;;;;;5.97;3.75;;;;;;;28.48;28.34;98692.09;5147467;27;20045;-79
2023/06/02 11:23:03;;;;;;;8.55;4.80;;;;;;;28.69;29.50;98729.94;5146068;27;20043;-80
2023/06/02 11:25:31;;;;;;;8.48;5.85;;;;;;;28.70;29.74;98720.72;5146468;27;20083;-80
2023/06/02 11:27:57;;;;;;;8.02;4.40;;;;;;;27.32;29.88;98490.41;5147964;27;20054;-80
2023/06/02 11:30:25;;;;;;;5.07;3.85;;;;;;;28.73;29.68;98724.91;5146645;27;20053;-76
2023/06/02 11:32:53;;;;;;;7.75;6.15;;;;;;;28.76;29.94;98702.66;5146467;27;20043;-77
2023/06/02 11:35:21;;;;;;;9.63;6.78;;;;;;;28.40;30.04;98671.31;5146450;27;20039;-76
2023/06/02 11:38:01;;;;;;;10.55;6.40;;;;;;;28.73;30.05;98714.00;5146226;27;20062;-76
2023/06/02 11:40:29;;;;;;;7.20;5.30;;;;;;;28.74;30.41;98708.31;5146336;27;20035;-75